Latest Weather Observations for Mount Crawford

IDS60901

Issued at 12:01 pm CDT Wednesday 29 January 2020 (issued every 10 minutes, with the page automatically refreshed every 10 minutes)

About weather observations | Map of Adelaide area stations | Latest observations for Adelaide area | Other Formats
Station Details ID: 023878 Name: MOUNT CRAWFORD AWS Lat: -34.73 Lon: 138.93 Height: 525.0 m
Data from the previous 72 hours. | See also: Recent months at Mount Crawford
Date/Time
CDT
Temp
°C
App
Temp
°C
Dew
Point
°C
Rel
Hum
%
Delta-T
°C
Wind Press
QNH
hPa
Press
MSL
hPa
Rain since
9am
mm
Dir  Spd
km/h
Gust
km/h
Spd
kts
Gust
kts
29/12:00pm 30.6 23.7 2.8 17 14.3 NE 28 37 15 20 1017.8 1015.5 0.0
29/11:30am 29.4 23.3 2.6 18 13.6 NE 24 37 13 20 1018.1 1015.8 0.0
29/11:00am 29.0 23.2 4.5 21 12.9 NE 24 33 13 18 1018.3 1016.0 0.0
29/10:30am 27.5 21.8 5.1 24 11.8 ENE 24 30 13 16 1018.3 1016.0 0.0
29/10:00am 25.4 19.4 3.4 24 11.1 ENE 24 32 13 17 1018.2 1015.9 0.0
29/09:30am 23.7 18.0 5.1 30 9.6 ENE 24 30 13 16 1018.3 1016.0 0.0
29/09:00am 22.1 17.9 5.5 34 8.5 E 17 24 9 13 1018.4 1016.1 0.0
29/08:30am 20.1 15.4 5.0 37 7.6 E 19 24 10 13 1018.3 1016.0 0.0
29/08:00am 19.5 14.5 4.4 37 7.5 E 20 30 11 16 1017.9 1015.6 0.0
29/07:30am 19.3 14.2 3.9 36 7.5 E 20 26 11 14 1017.7 1015.4 0.0
29/07:00am 18.9 13.8 3.9 37 7.3 E 20 24 11 13 1017.4 1015.1 0.0
29/06:30am 18.1 12.5 3.6 38 7.0 E 22 24 12 13 1017.2 1014.9 0.0
29/06:00am 18.5 12.9 3.6 37 7.2 E 22 24 12 13 1017.1 1014.8 0.0
29/05:30am 18.7 12.7 3.3 36 7.4 E 24 28 13 15 1016.9 1014.7 0.0
29/05:00am 18.9 13.3 3.5 36 7.4 E 22 26 12 14 1017.1 1014.8 0.0
29/04:30am 18.8 13.2 3.4 36 7.4 ESE 22 28 12 15 1017.1 1014.8 0.0
29/04:00am 18.8 12.7 3.0 35 7.6 ESE 24 28 13 15 1017.1 1014.8 0.0
29/03:30am 18.9 12.8 2.7 34 7.7 E 24 28 13 15 1017.1 1014.8 0.0
29/03:00am 17.9 11.7 2.2 35 7.3 E 24 28 13 15 1017.2 1014.9 0.0
29/02:30am 16.9 10.6 1.4 35 7.1 ESE 24 26 13 14 1017.3 1015.0 0.0
29/02:00am 17.1 10.3 1.1 34 7.3 ESE 26 30 14 16 1017.3 1015.0 0.0
29/01:30am 17.1 10.4 1.5 35 7.1 ESE 26 32 14 17 1017.5 1015.2 0.0
29/01:00am 17.0 9.9 1.4 35 7.1 ESE 28 32 15 17 1017.6 1015.3 0.0
29/12:30am 16.9 9.9 1.8 36 6.9 ESE 28 32 15 17 1017.7 1015.4 0.0
29/12:00am 17.2 10.5 1.6 35 7.1 ESE 26 33 14 18 1017.6 1015.3 0.0
 
Date/Time
CDT
Temp
°C
App
Temp
°C
Dew
Point
°C
Rel
Hum
%
Delta-T
°C
Wind Press
QNH
hPa
Press
MSL
hPa
Rain since
9am
mm
Dir  Spd
km/h
Gust
km/h
Spd
kts
Gust
kts
28/11:30pm 17.4 11.1 4.0 41 6.5 SE 26 33 14 18 1017.7 1015.4 0.0
28/11:00pm 17.9 12.6 6.7 48 5.7 SE 24 32 13 17 1017.8 1015.5 0.0
28/10:30pm 18.6 13.8 7.4 48 5.8 SE 22 28 12 15 1017.8 1015.5 0.0
28/10:00pm 19.2 14.5 7.9 48 6.0 SE 22 28 12 15 1017.9 1015.6 0.0
28/09:30pm 20.1 15.4 7.8 45 6.5 SE 22 28 12 15 1017.7 1015.4 0.0
28/09:00pm 20.8 16.1 7.8 43 6.9 SE 22 28 12 15 1017.5 1015.2 0.0
28/08:30pm 21.9 16.8 6.2 36 8.1 ESE 22 28 12 15 1017.3 1015.0 0.0
28/08:00pm 23.5 18.6 4.9 30 9.5 ESE 20 28 11 15 1017.2 1014.9 0.0
28/07:30pm 25.1 20.1 4.8 27 10.5 ESE 20 28 11 15 1016.9 1014.7 0.0
28/07:00pm 26.6 21.5 6.1 27 10.9 ESE 22 32 12 17 1016.6 1014.3 0.0
28/06:30pm 28.6 24.2 6.7 25 11.9 ESE 19 28 10 15 1016.3 1014.0 0.0
28/06:00pm 29.1 24.7 6.5 24 12.3 ESE 19 28 10 15 1016.2 1013.9 0.0
28/05:30pm 29.4 24.4 4.8 21 13.0 SSE 20 30 11 16 1016.2 1013.9 0.0
28/05:00pm 31.6 26.6 3.6 17 14.7 SE 19 28 10 15 1016.1 1013.8 0.0
28/04:30pm 31.7 27.7 2.8 16 15.0 SE 13 22 7 12 1016.2 1013.9 0.0
28/04:00pm 31.6 26.8 2.7 16 15.0 E 17 32 9 17 1016.4 1014.1 0.0
28/03:30pm 31.5 27.9 2.7 16 14.9 ESE 11 19 6 10 1016.6 1014.3 0.0
28/03:00pm 31.3 26.9 0.6 14 15.3 W 13 30 7 16 1016.6 1014.3 0.0
28/02:30pm 31.3 27.2 -0.4 13 15.5 W 11 17 6 9 1016.9 1014.7 0.0
28/02:00pm 30.9 27.3 -1.8 12 15.6 S 7 11 4 6 1017.1 1014.8 0.0
28/01:30pm 29.9 26.5 -0.5 14 14.7 NNE 7 13 4 7 1017.4 1015.1 0.0
28/01:00pm 30.1 25.6 4.0 19 13.7 NE 17 24 9 13 1017.6 1015.3 0.0
28/12:30pm 28.6 24.4 -3.6 12 14.6 SSW 9 15 5 8 1017.8 1015.5 0.0
28/12:00pm 26.5 22.3 -4.1 13 13.5 S 9 17 5 9 1018.2 1015.9 0.0
28/11:30am 26.2 21.8 -5.4 12 13.6 WSW 9 15 5 8 1018.1 1015.8 0.0
28/11:00am 25.9 20.4 -9.4 9 14.1 W 13 19 7 10 1018.2 1015.9 0.0
28/10:30am 25.0 20.2 -6.3 12 13.1 W 11 17 6 9 1018.2 1015.9 0.0
28/10:00am 23.7 20.0 0.1 21 11.1 WSW 9 13 5 7 1018.3 1016.0 0.0
28/09:30am 23.0 19.5 -1.1 20 11.0 SW 7 11 4 6 1018.1 1015.8 0.0
28/09:00am 21.9 18.0 -5.0 16 11.2 W 7 9 4 5 1017.8 1015.5 0.0
28/08:30am 21.2 16.8 -12.9 9 12.1 SE 6 9 3 5 1017.6 1015.3 0.0
28/08:00am 20.6 16.4 -9.8 12 11.4 ESE 6 7 3 4 1017.4 1015.1 0.0
28/07:30am 19.6 16.1 -10.5 12 11.0 SSW 2 9 1 5 1016.8 1014.6 0.0
28/07:00am 18.2 13.9 -8.8 15 10.1 E 7 9 4 5 1016.4 1014.1 0.0
28/06:30am 14.3 12.1 7.8 65 3.3 ESE 9 11 5 6 1016.3 1014.0 0.0
28/06:00am 14.7 11.9 7.0 60 3.9 SE 11 13 6 7 1016.1 1013.8 0.0
28/05:30am 13.6 10.1 8.7 72 2.5 SE 17 19 9 10 1016.2 1013.9 0.0
28/05:00am 12.9 9.3 8.2 73 2.4 SE 17 20 9 11 1016.2 1013.9 0.0
28/04:30am 12.2 9.2 9.2 82 1.6 SE 15 17 8 9 1016.1 1013.8 0.0
28/04:00am 13.6 9.3 6.9 64 3.3 SE 19 24 10 13 1016.3 1014.0 0.0
28/03:30am 15.9 10.8 0.9 36 6.7 SE 17 22 9 12 1016.3 1014.0 0.0
28/03:00am 15.7 10.9 4.7 48 5.3 SSE 19 26 10 14 1016.5 1014.2 0.0
28/02:30am 14.3 10.8 8.7 69 2.9 SE 17 22 9 12 1016.5 1014.2 0.0
28/02:00am 13.8 9.2 9.5 75 2.3 SSE 24 28 13 15 1016.9 1014.7 0.0
28/01:30am 12.6 8.3 10.8 89 1.0 SSE 24 28 13 15 1016.9 1014.7 0.0
28/01:00am 12.7 7.9 10.4 86 1.2 SSE 26 32 14 17 1017.1 1014.8 0.0
28/12:30am 12.9 8.5 10.3 84 1.4 SSE 24 30 13 16 1016.9 1014.7 0.0
28/12:00am 13.2 8.8 10.4 83 1.5 SSE 24 30 13 16 1016.9 1014.7 0.0
 
Date/Time
CDT
Temp
°C
App
Temp
°C
Dew
Point
°C
Rel
Hum
%
Delta-T
°C
Wind Press
QNH
hPa
Press
MSL
hPa
Rain since
9am
mm
Dir  Spd
km/h
Gust
km/h
Spd
kts
Gust
kts
27/11:30pm 13.2 8.7 10.0 81 1.7 SSE 24 30 13 16 1016.9 1014.7 0.0
27/11:00pm 13.5 9.0 10.1 80 1.8 SSE 24 30 13 16 1017.1 1014.8 0.0
27/10:30pm 13.6 9.3 10.6 82 1.6 SSE 24 32 13 17 1017.3 1015.0 0.0
27/10:00pm 14.1 10.1 10.5 79 1.9 SE 22 28 12 15 1017.2 1014.9 0.0
27/09:30pm 14.5 10.5 10.5 77 2.2 SE 22 30 12 16 1016.9 1014.7 0.0
27/09:00pm 15.2 11.6 10.6 74 2.5 SE 20 30 11 16 1016.5 1014.2 0.0
27/08:30pm 16.1 12.1 10.6 70 3.0 SE 22 32 12 17 1016.4 1014.1 0.0
27/08:00pm 17.5 13.7 11.1 66 3.5 SE 22 30 12 16 1016.1 1013.8 0.0
27/07:30pm 19.4 16.0 11.2 59 4.6 SSE 20 26 11 14 1015.8 1013.5 0.0
27/07:00pm 20.7 17.3 11.3 55 5.3 SE 20 28 11 15 1015.4 1013.1 0.0
27/06:30pm 23.0 19.8 11.4 48 6.6 SE 19 28 10 15 1015.4 1013.1 0.0
27/06:00pm 24.4 21.8 12.0 46 7.2 ESE 17 24 9 13 1015.3 1013.0 0.0
27/05:30pm 27.8 25.4 10.1 33 10.1 W 13 22 7 12 1015.3 1013.0 0.0
27/05:00pm 26.8 23.1 9.6 34 9.7 NW 19 28 10 15 1015.4 1013.1 0.0
27/04:30pm 26.8 23.1 7.8 30 10.4 W 17 28 9 15 1015.6 1013.3 0.0
27/04:00pm 27.2 23.2 6.6 27 11.1 W 17 26 9 14 1015.4 1013.1 0.0
27/03:30pm 27.8 24.6 10.1 33 10.1 WSW 17 24 9 13 1015.5 1013.2 0.0
27/03:00pm 27.0 23.4 9.8 34 9.8 WNW 19 30 10 16 1015.6 1013.3 0.0
27/02:30pm 26.5 23.8 10.2 36 9.3 W 15 24 8 13 1015.9 1013.6 0.0
27/02:00pm 26.0 23.1 9.8 36 9.2 W 15 26 8 14 1016.1 1013.8 0.0
27/01:30pm 26.0 23.5 9.8 36 9.2 WSW 13 20 7 11 1016.4 1014.1 0.0
27/01:00pm 25.2 22.1 8.7 35 9.1 W 15 26 8 14 1016.6 1014.3 0.0
27/12:30pm 24.6 21.6 7.7 34 9.1 W 13 20 7 11 1016.7 1014.4 0.0
27/12:00pm 24.3 22.2 12.3 47 7.0 WNW 15 24 8 13 1016.8 1014.6 0.0
27/11:30am 23.0 21.0 12.6 52 6.1 W 15 20 8 11 1017.3 1015.0 0.0
27/11:00am 22.1 20.3 13.2 57 5.2 W 15 22 8 12 1017.4 1015.1 0.0
27/10:30am 21.0 19.8 12.9 60 4.7 NW 11 20 6 11 1016.9 1014.7 0.0
27/10:00am 19.7 18.5 12.9 65 3.9 NW 11 19 6 10 1017.1 1014.8 0.0
27/09:30am 19.0 19.0 14.3 74 2.8 WNW 7 11 4 6 1017.1 1014.8 0.0
27/09:00am 17.7 19.4 17.2 97 0.3 NE 4 7 2 4 1016.8 1014.6 0.0
27/08:30am 14.9 15.4 14.9 100 0.0 ENE 6 7 3 4 1016.7 1014.4 0.0
27/08:00am 13.9 13.4 13.9 100 0.0 SSW 9 11 5 6 1016.8 1014.6 0.0
27/07:30am 13.5 13.8 13.5 100 0.0 ENE 4 7 2 4 1016.3 1014.0 0.0
27/07:00am 12.1 10.3 12.1 100 0.0 ESE 13 15 7 8 1016.1 1013.8 0.0
27/06:30am 12.1 9.9 12.1 100 0.0 ESE 15 17 8 9 1016.0 1013.7 0.0
27/06:00am 12.1 10.2 11.9 99 0.1 ESE 13 17 7 9 1016.0 1013.7 0.0
27/05:30am 12.4 10.6 12.2 99 0.1 E 13 17 7 9 1015.6 1013.3 0.0
27/05:00am 12.5 10.8 12.3 99 0.1 E 13 17 7 9 1015.6 1013.3 0.0
27/04:30am 12.7 10.3 12.5 99 0.1 ESE 17 20 9 11 1015.9 1013.6 0.0
27/04:00am 12.8 11.1 12.5 98 0.2 SE 13 17 7 9 1016.0 1013.7 0.0
27/03:30am 13.0 10.6 12.7 98 0.2 SE 17 22 9 12 1016.0 1013.7 0.0
27/03:00am 13.0 10.2 12.7 98 0.2 ESE 19 22 10 12 1016.1 1013.8 0.0
27/02:30am 13.1 10.3 12.6 97 0.3 ESE 19 22 10 12 1016.1 1013.8 0.0
27/02:00am 13.1 10.3 12.6 97 0.3 ESE 19 24 10 13 1016.3 1014.0 0.0
27/01:30am 13.2 10.4 12.7 97 0.3 ESE 19 24 10 13 1016.5 1014.2 0.0
27/01:00am 13.3 10.5 12.7 96 0.3 ESE 19 24 10 13 1016.5 1014.2 0.0
27/12:30am 13.2 9.8 12.6 96 0.3 SE 22 28 12 15 1016.7 1014.4 0.0
27/12:00am 13.2 10.1 12.3 94 0.5 SE 20 28 11 15 1016.5 1014.2 0.0
 
Date/Time
CDT
Temp
°C
App
Temp
°C
Dew
Point
°C
Rel
Hum
%
Delta-T
°C
Wind Press
QNH
hPa
Press
MSL
hPa
Rain since
9am
mm
Dir  Spd
km/h
Gust
km/h
Spd
kts
Gust
kts
26/11:30pm 13.6 10.5 12.3 92 0.7 SE 20 28 11 15 1016.8 1014.6 0.0
26/11:00pm 14.0 10.5 12.2 89 1.0 SE 22 28 12 15 1016.8 1014.6 0.0
26/10:30pm 14.6 11.2 12.5 87 1.2 SSE 22 30 12 16 1016.7 1014.4 0.0
26/10:00pm 15.1 12.1 12.6 85 1.4 SE 20 28 11 15 1016.7 1014.4 0.0
26/09:30pm 16.1 13.2 12.8 81 1.9 SE 20 24 11 13 1016.6 1014.3 0.0
26/09:00pm 16.9 14.6 13.0 78 2.2 SE 17 24 9 13 1016.7 1014.4 0.0
26/08:30pm 17.8 15.6 13.3 75 2.6 SE 17 22 9 12 1016.6 1014.3 0.0
26/08:00pm 19.0 16.5 13.4 70 3.3 SE 19 28 10 15 1016.2 1013.9 0.0
26/07:30pm 20.4 18.2 13.4 64 4.1 SE 17 22 9 12 1016.0 1013.7 0.0
26/07:00pm 21.8 19.2 13.2 58 5.1 SE 19 24 10 13 1015.7 1013.4 0.0
26/06:30pm 23.7 21.7 12.7 50 6.5 ESE 15 22 8 12 1015.3 1013.0 0.0
26/06:00pm 26.7 23.2 7.2 29 10.6 W 15 20 8 11 1015.2 1012.9 0.0
26/05:30pm 26.8 23.1 7.8 30 10.4 WNW 17 28 9 15 1015.2 1012.9 0.0
26/05:00pm 26.8 23.8 9.2 33 9.9 W 15 22 8 12 1015.3 1013.0 0.0
26/04:30pm 26.2 23.5 10.4 37 9.0 WSW 15 22 8 12 1015.4 1013.1 0.0
26/04:00pm 26.1 22.9 11.1 39 8.7 W 19 30 10 16 1015.4 1013.1 0.0
26/03:30pm 26.2 23.6 11.9 41 8.4 W 17 30 9 16 1015.5 1013.2 0.0
26/03:00pm 26.8 23.6 11.3 38 9.0 W 19 32 10 17 1015.6 1013.3 0.0
26/02:30pm 26.0 23.0 12.5 43 8.0 W 20 30 11 16 1015.9 1013.6 0.0
26/02:00pm 26.1 23.6 12.2 42 8.2 WSW 17 24 9 13 1016.1 1013.8 0.0
26/01:30pm 25.5 22.7 12.7 45 7.6 WSW 19 30 10 16 1016.4 1014.1 0.0
26/01:00pm 25.6 24.0 13.8 48 7.1 SW 15 26 8 14 1016.6 1014.3 0.0
26/12:30pm 24.9 23.2 13.5 49 6.8 WSW 15 22 8 12 1016.8 1014.6 0.0

Latest Capital City Observations: Canberra | Sydney | Melbourne | Brisbane | Adelaide | Perth | Hobart | Darwin

Other formats

Comma delimited format used in spreadsheet applications
http://www.bom.gov.au/fwo/IDS60901/IDS60901.94678.axf

JavaScript Object Notation format (JSON) in row-major order
http://www.bom.gov.au/fwo/IDS60901/IDS60901.94678.json

Data quality

Most of these data are generated automatically and are frequently updated. Quality checks on data are not normally performed. It is possible for incorrect values to appear. Refer to information at About Latest Weather Observations and please check the disclaimer before using these data.